createdAt,value
2023-02-09T00:01:29.472Z,44.08
2023-02-09T00:03:59.452Z,44.22
2023-02-09T00:06:30.050Z,44.31
2023-02-09T00:08:59.802Z,44.11
2023-02-09T00:11:49.693Z,43.90
2023-02-09T00:14:21.718Z,43.60
2023-02-09T00:16:51.950Z,43.64
2023-02-09T00:19:22.071Z,44.02
2023-02-09T00:21:49.985Z,43.83
2023-02-09T00:24:18.525Z,43.88
2023-02-09T00:26:46.891Z,43.90
2023-02-09T00:29:15.227Z,43.78
2023-02-09T00:31:43.977Z,43.50
2023-02-09T00:34:12.164Z,43.30
2023-02-09T00:36:40.156Z,43.16
2023-02-09T00:39:08.396Z,43.64
2023-02-09T00:41:55.724Z,43.66
2023-02-09T00:44:23.711Z,43.45
2023-02-09T00:46:52.348Z,43.25
2023-02-09T00:49:21.328Z,43.20
2023-02-09T00:51:49.921Z,43.04
2023-02-09T00:54:18.003Z,43.07
2023-02-09T00:56:47.330Z,43.37
2023-02-09T00:59:15.578Z,42.94
2023-02-09T01:01:43.737Z,43.59
2023-02-09T01:04:11.316Z,43.45
2023-02-09T01:06:38.790Z,43.74
2023-02-09T01:09:06.913Z,43.99
2023-02-09T01:11:34.568Z,43.51
2023-02-09T01:14:04.487Z,43.07
2023-02-09T01:16:32.816Z,42.87
2023-02-09T01:19:02.793Z,42.95
2023-02-09T01:21:31.530Z,43.47
2023-02-09T01:23:59.815Z,43.08
2023-02-09T01:26:27.860Z,43.44
2023-02-09T01:28:56.489Z,44.38
2023-02-09T01:31:31.545Z,44.04
2023-02-09T01:34:02.546Z,43.92
2023-02-09T01:36:31.499Z,44.32
2023-02-09T01:39:02.565Z,43.81
2023-02-09T01:41:31.613Z,43.57
2023-02-09T01:44:06.937Z,43.70
2023-02-09T01:46:36.701Z,43.45
2023-02-09T01:49:08.844Z,43.66
2023-02-09T01:51:41.703Z,43.57
2023-02-09T01:54:15.746Z,43.56
2023-02-09T01:56:48.510Z,43.42
2023-02-09T01:59:17.671Z,43.65
2023-02-09T02:01:46.170Z,43.41
2023-02-09T02:04:14.954Z,43.45
2023-02-09T02:06:43.373Z,42.98
2023-02-09T02:09:17.016Z,43.05
2023-02-09T02:11:47.702Z,42.86
2023-02-09T02:14:37.142Z,43.22
2023-02-09T02:17:46.801Z,43.18
2023-02-09T02:20:41.900Z,43.34
2023-02-09T02:23:13.034Z,43.46
2023-02-09T02:25:49.526Z,42.73
2023-02-09T02:28:55.110Z,42.87
2023-02-09T02:31:55.465Z,42.99
2023-02-09T02:34:42.949Z,42.83
2023-02-09T02:37:32.804Z,42.80
2023-02-09T02:40:25.607Z,42.92
2023-02-09T02:43:07.665Z,42.87
2023-02-09T02:46:11.905Z,43.03
2023-02-09T02:49:01.389Z,42.95
2023-02-09T02:51:37.408Z,43.27
2023-02-09T02:54:09.585Z,42.94
2023-02-09T02:56:42.872Z,43.07
2023-02-09T02:59:17.932Z,43.22
2023-02-09T03:02:27.037Z,43.05
2023-02-09T03:04:57.083Z,43.27
2023-02-09T03:07:25.231Z,43.04
2023-02-09T03:09:55.664Z,43.09
2023-02-09T03:12:35.401Z,43.25
2023-02-09T03:15:15.230Z,42.75
2023-02-09T03:17:52.380Z,43.06
2023-02-09T03:20:37.960Z,42.83
2023-02-09T03:23:10.444Z,42.84
2023-02-09T03:25:45.109Z,42.63
2023-02-09T03:28:19.788Z,42.48
2023-02-09T03:30:50.150Z,42.81
2023-02-09T03:33:27.589Z,42.48
2023-02-09T03:35:59.745Z,42.30
2023-02-09T03:38:27.752Z,42.96
2023-02-09T03:40:55.964Z,42.66
2023-02-09T03:43:46.991Z,43.18
2023-02-09T03:46:15.109Z,43.05
2023-02-09T03:48:42.658Z,43.21
2023-02-09T03:51:10.467Z,42.99
2023-02-09T03:53:39.013Z,43.28
2023-02-09T03:56:10.051Z,43.81
2023-02-09T03:58:37.919Z,43.28
2023-02-09T04:01:10.524Z,43.92
2023-02-09T04:03:39.909Z,43.73
2023-02-09T04:06:10.123Z,43.83
2023-02-09T04:08:38.220Z,43.54
2023-02-09T04:11:05.833Z,43.61
2023-02-09T04:13:33.581Z,43.89
2023-02-09T04:16:01.591Z,44.20
2023-02-09T04:18:30.114Z,44.07
2023-02-09T04:20:58.792Z,44.07
2023-02-09T04:23:26.508Z,44.80
2023-02-09T04:25:54.331Z,44.52
2023-02-09T04:28:22.681Z,44.38
2023-02-09T04:30:56.015Z,45.13
2023-02-09T04:33:25.245Z,45.04
2023-02-09T04:35:53.222Z,44.64
2023-02-09T04:38:22.384Z,44.36
2023-02-09T04:40:51.905Z,44.29
2023-02-09T04:43:20.521Z,44.60
2023-02-09T04:45:48.802Z,44.86
2023-02-09T04:48:18.969Z,44.76
2023-02-09T04:50:47.695Z,45.11
2023-02-09T04:53:16.590Z,45.12
2023-02-09T04:55:45.549Z,45.02
2023-02-09T04:58:37.029Z,44.79
2023-02-09T05:01:05.968Z,44.73
2023-02-09T05:03:34.242Z,45.08
2023-02-09T05:06:04.759Z,44.65
2023-02-09T05:08:32.994Z,45.52
2023-02-09T05:11:01.259Z,45.46
2023-02-09T05:13:29.723Z,46.04
2023-02-09T05:15:57.251Z,46.26
2023-02-09T05:18:25.719Z,46.22
2023-02-09T05:20:53.808Z,46.46
2023-02-09T05:23:21.933Z,47.07
2023-02-09T05:25:49.447Z,47.17
2023-02-09T05:28:17.340Z,47.25
2023-02-09T05:30:45.734Z,47.64
2023-02-09T05:33:13.425Z,47.93
2023-02-09T05:35:41.448Z,47.93
2023-02-09T05:38:09.436Z,47.67
2023-02-09T05:40:37.432Z,47.51
2023-02-09T05:43:05.858Z,47.18
2023-02-09T05:45:33.872Z,48.10
2023-02-09T05:48:01.796Z,48.26
2023-02-09T05:50:29.979Z,48.22
2023-02-09T05:53:01.149Z,47.38
2023-02-09T05:55:29.272Z,49.27
2023-02-09T05:57:57.139Z,48.86
2023-02-09T06:00:27.108Z,48.57
2023-02-09T06:02:54.792Z,48.85
2023-02-09T06:05:22.937Z,49.52
2023-02-09T06:07:51.629Z,49.65
2023-02-09T06:10:20.649Z,50.48
2023-02-09T06:12:48.274Z,51.08
2023-02-09T06:15:16.678Z,50.62
2023-02-09T06:17:45.404Z,51.28
2023-02-09T06:20:13.170Z,51.15
2023-02-09T06:22:40.871Z,49.97
2023-02-09T06:25:09.592Z,49.92
2023-02-09T06:27:37.537Z,49.74
2023-02-09T06:30:06.427Z,49.53
2023-02-09T06:32:34.574Z,49.74
2023-02-09T06:35:02.215Z,49.79
2023-02-09T06:37:30.226Z,50.13
2023-02-09T06:39:57.819Z,50.54
2023-02-09T06:42:43.768Z,50.34
2023-02-09T06:45:13.499Z,50.76
2023-02-09T06:47:45.275Z,51.69
2023-02-09T06:50:14.901Z,51.25
2023-02-09T06:52:43.882Z,51.81
2023-02-09T06:55:12.897Z,51.09
2023-02-09T06:57:41.068Z,50.76
2023-02-09T07:00:10.228Z,50.87
2023-02-09T07:02:38.218Z,51.44
2023-02-09T07:05:06.083Z,50.78
2023-02-09T07:07:33.638Z,50.90
2023-02-09T07:10:01.668Z,50.68
2023-02-09T07:12:29.368Z,50.87
2023-02-09T07:14:57.796Z,50.18
2023-02-09T07:17:25.882Z,49.89
2023-02-09T07:19:53.859Z,50.41
2023-02-09T07:22:22.807Z,50.12
2023-02-09T07:24:50.427Z,48.23
2023-02-09T07:27:19.066Z,47.54
2023-02-09T07:29:47.677Z,46.05
2023-02-09T07:32:16.251Z,46.08
2023-02-09T07:34:43.984Z,45.64
2023-02-09T07:37:11.613Z,44.28
2023-02-09T07:39:39.257Z,43.92
2023-02-09T07:42:06.951Z,43.63
2023-02-09T07:44:49.433Z,42.58
2023-02-09T07:47:27.283Z,42.83
2023-02-09T07:50:07.277Z,42.57
2023-02-09T07:52:34.793Z,42.48
2023-02-09T07:55:03.993Z,42.28
2023-02-09T07:57:33.114Z,41.85
2023-02-09T08:00:00.621Z,41.44
2023-02-09T08:02:35.130Z,41.23
2023-02-09T08:05:04.360Z,41.30
2023-02-09T08:07:32.345Z,40.61
2023-02-09T08:09:59.974Z,40.15
2023-02-09T08:12:48.615Z,40.02
2023-02-09T08:15:21.345Z,38.92
2023-02-09T08:17:55.674Z,39.48
2023-02-09T08:20:27.812Z,39.46
2023-02-09T08:23:04.145Z,39.22
2023-02-09T08:25:32.992Z,38.90
2023-02-09T08:28:12.576Z,39.22
2023-02-09T08:30:40.255Z,39.01
2023-02-09T08:33:07.850Z,38.66
2023-02-09T08:35:35.436Z,39.28
2023-02-09T08:38:04.090Z,39.17
2023-02-09T08:40:32.896Z,40.53
2023-02-09T08:43:01.481Z,38.96
2023-02-09T08:45:29.202Z,38.60
2023-02-09T08:48:00.718Z,38.31
2023-02-09T08:50:28.756Z,38.63
2023-02-09T08:52:58.001Z,37.42
2023-02-09T08:55:26.057Z,38.05
2023-02-09T08:57:54.115Z,37.78
2023-02-09T09:00:22.193Z,37.95
2023-02-09T09:02:49.857Z,37.13
2023-02-09T09:05:17.855Z,36.73
2023-02-09T09:07:45.487Z,35.47
2023-02-09T09:10:13.823Z,34.84
2023-02-09T09:12:41.773Z,34.57
2023-02-09T09:15:10.268Z,33.23
2023-02-09T09:17:37.940Z,32.05
2023-02-09T09:20:07.044Z,30.93
2023-02-09T09:22:35.486Z,30.49
2023-02-09T09:25:04.868Z,29.59
2023-02-09T09:27:35.021Z,29.04
2023-02-09T09:30:05.375Z,30.46
2023-02-09T09:32:33.507Z,29.58
2023-02-09T09:35:03.445Z,28.30
2023-02-09T09:37:31.499Z,28.07
2023-02-09T09:40:00.614Z,28.55
2023-02-09T09:42:36.362Z,28.93
2023-02-09T09:45:07.881Z,28.93
2023-02-09T09:47:39.448Z,28.23
2023-02-09T09:50:17.796Z,27.90
2023-02-09T09:52:56.425Z,27.69
2023-02-09T09:55:28.988Z,28.45
2023-02-09T09:58:01.625Z,27.60
2023-02-09T10:00:36.260Z,28.09
2023-02-09T10:03:04.974Z,26.53
2023-02-09T10:05:40.233Z,27.42
2023-02-09T10:08:10.954Z,27.40
2023-02-09T10:10:49.719Z,27.06
2023-02-09T10:13:40.074Z,27.84
2023-02-09T10:16:21.003Z,27.21
2023-02-09T10:18:54.496Z,27.18
2023-02-09T10:21:28.342Z,26.49
2023-02-09T10:24:02.007Z,25.84
2023-02-09T10:26:33.889Z,25.77
2023-02-09T10:29:25.811Z,24.92
2023-02-09T10:31:58.961Z,25.81
2023-02-09T10:34:41.091Z,26.54
2023-02-09T10:37:15.069Z,26.57
2023-02-09T10:39:42.851Z,27.16
2023-02-09T10:42:21.820Z,26.48
2023-02-09T10:44:53.771Z,25.96
2023-02-09T10:47:21.238Z,25.95
2023-02-09T10:50:11.234Z,25.46
2023-02-09T10:52:44.854Z,26.07
2023-02-09T10:55:25.728Z,26.87
2023-02-09T10:58:04.968Z,26.77
2023-02-09T11:00:46.073Z,26.36
2023-02-09T11:03:20.780Z,25.08
2023-02-09T11:06:00.110Z,26.36
2023-02-09T11:08:47.425Z,25.78
2023-02-09T11:11:24.746Z,25.94
2023-02-09T11:13:52.547Z,25.59
2023-02-09T11:16:32.409Z,26.22
2023-02-09T11:19:15.166Z,25.09
2023-02-09T11:21:46.539Z,24.88
2023-02-09T11:24:19.862Z,24.85
2023-02-09T11:26:54.186Z,25.76
2023-02-09T11:29:30.880Z,26.02
2023-02-09T11:32:18.612Z,24.96
2023-02-09T11:35:04.785Z,24.54
2023-02-09T11:37:59.410Z,25.70
2023-02-09T11:40:37.248Z,24.44
2023-02-09T11:43:15.599Z,25.04
2023-02-09T11:46:04.607Z,24.09
2023-02-09T11:48:37.099Z,25.31
2023-02-09T11:51:04.800Z,23.51
2023-02-09T11:53:56.706Z,24.05
2023-02-09T11:56:28.463Z,24.56
2023-02-09T11:59:08.098Z,23.71
2023-02-09T12:01:41.505Z,23.77
2023-02-09T12:04:24.740Z,23.15
2023-02-09T12:07:03.967Z,23.29
2023-02-09T12:09:52.050Z,23.71
2023-02-09T12:12:33.103Z,23.73
2023-02-09T12:15:10.570Z,23.61
2023-02-09T12:17:57.450Z,23.57
2023-02-09T12:20:27.980Z,22.33
2023-02-09T12:23:01.532Z,21.95
2023-02-09T12:25:51.651Z,22.67
2023-02-09T12:28:35.067Z,22.86
2023-02-09T12:31:07.415Z,22.50
2023-02-09T12:33:39.724Z,22.05
2023-02-09T12:36:08.107Z,21.88
2023-02-09T12:39:03.872Z,22.46
2023-02-09T12:41:35.413Z,22.72
2023-02-09T12:44:11.916Z,22.51
2023-02-09T12:46:48.411Z,22.58
2023-02-09T12:49:21.012Z,21.78
2023-02-09T12:51:54.624Z,21.88
2023-02-09T12:54:52.332Z,21.26
2023-02-09T12:57:22.810Z,21.32
2023-02-09T13:00:03.559Z,21.29
2023-02-09T13:02:49.689Z,20.62
2023-02-09T13:05:39.996Z,20.91
2023-02-09T13:08:13.776Z,21.11
2023-02-09T13:10:44.763Z,21.08
2023-02-09T13:13:17.472Z,20.95
2023-02-09T13:16:07.478Z,20.74
2023-02-09T13:19:05.644Z,20.30
2023-02-09T13:21:57.755Z,21.15
2023-02-09T13:24:56.650Z,20.75
2023-02-09T13:27:26.514Z,20.92
2023-02-09T13:29:59.448Z,21.83
2023-02-09T13:33:09.092Z,20.51
2023-02-09T13:36:01.814Z,20.56
2023-02-09T13:38:33.875Z,20.85
2023-02-09T13:41:02.790Z,20.62
2023-02-09T13:43:40.384Z,20.23
2023-02-09T13:46:24.698Z,20.38
2023-02-09T13:48:52.831Z,20.54
2023-02-09T13:51:21.116Z,20.35
2023-02-09T13:53:56.939Z,19.56
2023-02-09T13:56:26.309Z,19.17
2023-02-09T13:58:56.426Z,18.96
2023-02-09T14:01:36.357Z,19.12
2023-02-09T14:04:11.263Z,18.24
2023-02-09T14:06:50.660Z,17.58
2023-02-09T14:09:25.100Z,16.90
2023-02-09T14:12:12.792Z,15.90
2023-02-09T14:15:09.275Z,15.68
2023-02-09T14:17:39.045Z,14.98
2023-02-09T14:20:21.477Z,15.10
2023-02-09T14:23:00.382Z,16.22
2023-02-09T14:25:31.348Z,16.09
2023-02-09T14:27:59.098Z,16.32
2023-02-09T14:30:32.129Z,16.51
2023-02-09T14:33:03.452Z,16.59
2023-02-09T14:35:39.646Z,16.08
2023-02-09T14:38:42.730Z,16.16
2023-02-09T14:41:30.444Z,15.49
2023-02-09T14:44:00.340Z,16.11
2023-02-09T14:46:45.522Z,15.74
2023-02-09T14:49:13.605Z,16.34
2023-02-09T14:51:42.857Z,15.89
2023-02-09T14:54:22.989Z,15.84
2023-02-09T14:56:53.346Z,15.59
2023-02-09T14:59:22.103Z,15.77
2023-02-09T15:01:53.478Z,16.41
2023-02-09T15:04:22.406Z,17.10
2023-02-09T15:07:00.712Z,17.09
2023-02-09T15:09:37.908Z,17.66
2023-02-09T15:12:07.214Z,18.12
2023-02-09T15:14:46.387Z,18.09
2023-02-09T15:17:15.542Z,18.66
2023-02-09T15:19:45.211Z,21.56
2023-02-09T15:22:16.310Z,23.05
2023-02-09T15:24:46.504Z,24.25
2023-02-09T15:27:26.223Z,25.82
2023-02-09T15:29:58.982Z,26.67
2023-02-09T15:32:29.324Z,27.21
2023-02-09T15:34:56.902Z,28.59
2023-02-09T15:37:35.049Z,28.89
2023-02-09T15:40:12.957Z,29.88
2023-02-09T15:43:01.169Z,31.01
2023-02-09T15:45:49.559Z,31.42
2023-02-09T15:48:17.203Z,31.32
2023-02-09T15:50:48.363Z,32.09
2023-02-09T15:53:19.392Z,31.91
2023-02-09T15:55:48.381Z,32.21
2023-02-09T15:58:20.654Z,32.60
2023-02-09T16:00:48.929Z,32.44
2023-02-09T16:03:19.343Z,32.79
2023-02-09T16:05:51.038Z,32.89
2023-02-09T16:08:28.306Z,32.75
2023-02-09T16:10:57.500Z,33.28
2023-02-09T16:13:26.728Z,33.57
2023-02-09T16:15:58.247Z,33.93
2023-02-09T16:18:32.531Z,34.59
2023-02-09T16:21:00.302Z,35.25
2023-02-09T16:23:29.299Z,35.39
2023-02-09T16:26:01.629Z,35.92
2023-02-09T16:28:31.253Z,35.91
2023-02-09T16:30:59.813Z,36.22
2023-02-09T16:33:27.508Z,36.36
2023-02-09T16:35:58.948Z,36.70
2023-02-09T16:38:27.356Z,37.04
2023-02-09T16:40:56.526Z,37.35
2023-02-09T16:43:24.834Z,37.82
2023-02-09T16:46:03.330Z,37.97
2023-02-09T16:48:34.660Z,38.30
2023-02-09T16:51:03.056Z,38.14
2023-02-09T16:53:37.173Z,38.01
2023-02-09T16:56:10.461Z,38.46
2023-02-09T16:58:39.876Z,38.79
2023-02-09T17:01:17.946Z,39.49
2023-02-09T17:03:52.224Z,39.13
2023-02-09T17:06:23.266Z,39.25
2023-02-09T17:08:51.296Z,39.81
2023-02-09T17:11:22.272Z,39.24
2023-02-09T17:13:50.506Z,39.58
2023-02-09T17:16:22.060Z,40.42
2023-02-09T17:18:53.888Z,39.99
2023-02-09T17:21:27.719Z,40.34
2023-02-09T17:23:59.360Z,40.46
2023-02-09T17:26:28.297Z,41.27
2023-02-09T17:28:56.209Z,40.78
2023-02-09T17:31:28.848Z,41.71
2023-02-09T17:33:59.761Z,41.69
2023-02-09T17:36:29.531Z,41.45
2023-02-09T17:38:59.719Z,42.09
2023-02-09T17:41:34.009Z,41.91
2023-02-09T17:44:22.241Z,42.41
2023-02-09T17:46:55.432Z,42.40
2023-02-09T17:49:23.476Z,43.12
2023-02-09T17:51:53.041Z,43.08
2023-02-09T17:54:21.448Z,43.03
2023-02-09T17:56:49.513Z,43.55
2023-02-09T17:59:19.956Z,44.10
2023-02-09T18:01:51.669Z,43.39
2023-02-09T18:04:26.885Z,44.02
2023-02-09T18:06:57.540Z,43.96
2023-02-09T18:09:26.365Z,44.47
2023-02-09T18:12:03.978Z,43.98
2023-02-09T18:14:33.607Z,44.41
2023-02-09T18:17:02.747Z,44.61
2023-02-09T18:19:33.104Z,45.21
2023-02-09T18:22:02.412Z,44.33
2023-02-09T18:24:32.563Z,45.08
2023-02-09T18:27:01.074Z,44.52
2023-02-09T18:29:30.357Z,44.79
2023-02-09T18:32:03.072Z,45.18
2023-02-09T18:34:31.136Z,45.68
2023-02-09T18:36:59.498Z,45.21
2023-02-09T18:39:27.112Z,45.47
2023-02-09T18:41:56.302Z,45.30
2023-02-09T18:44:29.190Z,45.23
2023-02-09T18:46:58.101Z,46.40
2023-02-09T18:49:25.849Z,46.30
2023-02-09T18:51:53.947Z,46.21
2023-02-09T18:54:22.235Z,47.45
2023-02-09T18:56:50.416Z,47.38
2023-02-09T18:59:18.526Z,47.52
2023-02-09T19:01:46.868Z,47.94
2023-02-09T19:04:15.012Z,48.08
2023-02-09T19:06:42.562Z,48.29
2023-02-09T19:09:11.291Z,48.72
2023-02-09T19:11:39.037Z,48.63
2023-02-09T19:14:26.417Z,48.83
2023-02-09T19:16:54.735Z,49.21
2023-02-09T19:19:22.731Z,49.19
2023-02-09T19:21:54.528Z,48.84
2023-02-09T19:24:23.519Z,49.33
2023-02-09T19:26:51.066Z,49.59
2023-02-09T19:29:18.780Z,49.95
2023-02-09T19:31:46.587Z,50.12
2023-02-09T19:34:14.689Z,50.19
2023-02-09T19:36:43.930Z,50.42
2023-02-09T19:39:12.695Z,50.18
2023-02-09T19:41:40.810Z,50.48
2023-02-09T19:44:08.637Z,50.37
2023-02-09T19:46:36.718Z,50.91
2023-02-09T19:49:04.511Z,50.63
2023-02-09T19:51:32.572Z,50.54
2023-02-09T19:54:00.737Z,51.56
2023-02-09T19:56:29.854Z,51.42
2023-02-09T19:58:57.962Z,51.41
2023-02-09T20:01:27.071Z,51.95
2023-02-09T20:03:54.773Z,52.26
2023-02-09T20:06:22.969Z,52.02
2023-02-09T20:08:51.770Z,51.83
2023-02-09T20:11:20.738Z,52.56
2023-02-09T20:13:52.743Z,52.41
2023-02-09T20:16:24.819Z,51.97
2023-02-09T20:18:53.970Z,52.27
2023-02-09T20:21:23.778Z,53.08
2023-02-09T20:23:56.228Z,53.87
2023-02-09T20:26:29.495Z,53.39
2023-02-09T20:28:58.777Z,53.14
2023-02-09T20:31:29.631Z,53.73
2023-02-09T20:33:58.257Z,53.77
2023-02-09T20:36:26.344Z,52.62
2023-02-09T20:38:54.030Z,52.37
2023-02-09T20:41:22.641Z,52.93
2023-02-09T20:44:09.242Z,52.64
2023-02-09T20:47:00.328Z,52.13
2023-02-09T20:49:31.389Z,52.32
2023-02-09T20:51:59.547Z,52.34
2023-02-09T20:54:27.721Z,52.28
2023-02-09T20:56:55.686Z,52.91
2023-02-09T20:59:24.171Z,53.13
2023-02-09T21:01:52.242Z,52.81
2023-02-09T21:04:19.969Z,52.84
2023-02-09T21:06:48.978Z,53.18
2023-02-09T21:09:16.814Z,54.94
2023-02-09T21:11:45.029Z,54.82
2023-02-09T21:14:21.918Z,56.60
2023-02-09T21:17:00.861Z,58.66
2023-02-09T21:19:29.631Z,58.54
2023-02-09T21:21:57.763Z,59.36
2023-02-09T21:24:26.078Z,60.42
2023-02-09T21:26:53.895Z,60.97
2023-02-09T21:29:21.801Z,61.69
2023-02-09T21:31:51.381Z,62.25
2023-02-09T21:34:19.810Z,61.68
2023-02-09T21:36:47.777Z,61.91
2023-02-09T21:39:16.318Z,61.39
2023-02-09T21:42:03.037Z,61.90
2023-02-09T21:44:31.766Z,63.02
2023-02-09T21:47:00.686Z,64.10
2023-02-09T21:49:31.780Z,62.60
2023-02-09T21:52:00.466Z,62.46
2023-02-09T21:54:33.197Z,63.20
2023-02-09T21:57:02.253Z,63.18
2023-02-09T21:59:30.176Z,63.66
2023-02-09T22:01:58.783Z,64.38
2023-02-09T22:04:26.410Z,64.35
2023-02-09T22:06:54.738Z,65.42
2023-02-09T22:09:24.025Z,66.18
2023-02-09T22:11:52.015Z,66.40
2023-02-09T22:14:20.107Z,67.63
2023-02-09T22:16:47.671Z,67.86
2023-02-09T22:19:15.449Z,68.48
2023-02-09T22:21:43.504Z,68.52
2023-02-09T22:24:13.840Z,69.30
2023-02-09T22:26:41.925Z,69.58
2023-02-09T22:29:11.891Z,71.49
2023-02-09T22:31:43.378Z,70.49
2023-02-09T22:34:11.722Z,70.02
2023-02-09T22:36:39.906Z,70.64
2023-02-09T22:39:08.752Z,70.16
2023-02-09T22:41:37.581Z,70.28
2023-02-09T22:44:08.461Z,70.54
2023-02-09T22:46:38.564Z,73.29
2023-02-09T22:49:09.835Z,72.01
2023-02-09T22:51:37.560Z,72.11
2023-02-09T22:54:06.540Z,71.31
2023-02-09T22:56:34.195Z,72.54
2023-02-09T22:59:02.342Z,72.62
2023-02-09T23:01:30.768Z,73.86
2023-02-09T23:03:58.948Z,73.61
2023-02-09T23:06:30.011Z,73.48
2023-02-09T23:09:03.035Z,74.40
2023-02-09T23:11:32.065Z,74.71
2023-02-09T23:14:09.138Z,75.48
2023-02-09T23:16:40.787Z,74.27
2023-02-09T23:19:13.034Z,74.40
2023-02-09T23:21:43.595Z,75.31
2023-02-09T23:24:12.718Z,73.54
2023-02-09T23:26:41.531Z,74.19
2023-02-09T23:29:13.065Z,73.83
2023-02-09T23:31:41.550Z,73.86
2023-02-09T23:34:13.787Z,73.42
2023-02-09T23:36:41.666Z,75.10
2023-02-09T23:39:13.651Z,75.40
2023-02-09T23:41:42.241Z,75.62
2023-02-09T23:44:11.569Z,75.38
2023-02-09T23:46:39.919Z,75.60
2023-02-09T23:49:07.509Z,75.01
2023-02-09T23:51:36.695Z,74.79
2023-02-09T23:54:06.299Z,73.96
2023-02-09T23:56:37.374Z,76.16
2023-02-09T23:59:12.028Z,75.90
